createdAt,value
2019-01-12T00:00:23.061Z,77.57
2019-01-12T00:05:25.529Z,73.83
2019-01-12T00:10:27.992Z,77.10
2019-01-12T00:15:30.453Z,66.97
2019-01-12T00:20:32.926Z,68.90
2019-01-12T00:25:35.400Z,71.00
2019-01-12T00:30:37.853Z,59.83
2019-01-12T00:35:40.303Z,62.03
2019-01-12T00:40:42.772Z,68.30
2019-01-12T00:45:45.235Z,67.07
2019-01-12T00:50:47.711Z,75.20
2019-01-12T00:55:50.172Z,71.53
2019-01-12T01:00:52.631Z,73.53
2019-01-12T01:05:55.094Z,65.83
2019-01-12T01:10:57.561Z,67.13
2019-01-12T01:16:00.016Z,72.57
2019-01-12T01:21:02.499Z,67.40
2019-01-12T01:26:04.971Z,77.20
2019-01-12T01:31:07.415Z,67.87
2019-01-12T01:36:09.870Z,60.77
2019-01-12T01:41:12.333Z,76.13
2019-01-12T01:46:14.803Z,68.07
2019-01-12T01:51:17.281Z,72.37
2019-01-12T01:56:19.736Z,62.83
2019-01-12T02:01:22.194Z,73.27
2019-01-12T02:06:24.715Z,69.10
2019-01-12T02:11:27.135Z,70.47
2019-01-12T02:16:29.594Z,70.40
2019-01-12T02:21:32.072Z,61.73
2019-01-12T02:26:34.557Z,77.63
2019-01-12T02:31:37.042Z,60.77
2019-01-12T02:36:39.552Z,67.53
2019-01-12T02:41:41.949Z,84.93
2019-01-12T02:46:44.407Z,72.20
2019-01-12T02:51:46.873Z,70.03
2019-01-12T02:56:49.344Z,77.13
2019-01-12T03:01:51.809Z,78.57
2019-01-12T03:06:54.277Z,69.00
2019-01-12T03:11:56.742Z,67.50
2019-01-12T03:16:59.279Z,70.87
2019-01-12T03:22:01.685Z,79.40
2019-01-12T03:27:04.147Z,78.00
2019-01-12T03:32:06.615Z,74.27
2019-01-12T03:37:09.059Z,66.90
2019-01-12T03:42:11.518Z,68.13
2019-01-12T03:47:13.995Z,69.80
2019-01-12T03:52:16.471Z,71.23
2019-01-12T03:57:18.935Z,70.23
2019-01-12T04:02:21.392Z,71.10
2019-01-12T04:07:23.854Z,70.53
2019-01-12T04:12:26.334Z,70.67
2019-01-12T04:17:28.835Z,61.90
2019-01-12T04:22:31.295Z,60.10
2019-01-12T04:27:33.735Z,62.27
2019-01-12T04:32:36.186Z,60.57
2019-01-12T04:37:38.650Z,67.70
2019-01-12T04:42:41.120Z,68.50
2019-01-12T04:47:43.586Z,57.83
2019-01-12T04:52:46.045Z,65.20
2019-01-12T04:57:48.506Z,91.93
2019-01-12T05:02:50.964Z,63.73
2019-01-12T05:07:53.422Z,69.20
2019-01-12T05:12:55.885Z,76.20
2019-01-12T05:17:58.338Z,78.90
2019-01-12T05:23:00.812Z,80.17
2019-01-12T05:28:03.266Z,88.53
2019-01-12T05:33:05.720Z,90.90
2019-01-12T05:38:08.191Z,68.00
2019-01-12T05:43:10.645Z,103.30
2019-01-12T05:48:13.118Z,80.57
2019-01-12T05:53:15.573Z,89.53
2019-01-12T05:58:18.051Z,80.23
2019-01-12T06:03:20.510Z,80.80
2019-01-12T06:08:22.974Z,79.40
2019-01-12T06:13:25.433Z,92.57
2019-01-12T06:18:27.912Z,80.60
2019-01-12T06:23:30.363Z,88.67
2019-01-12T06:28:32.895Z,83.83
2019-01-12T06:33:35.399Z,86.30
2019-01-12T06:38:37.897Z,86.07
2019-01-12T06:43:40.352Z,96.40
2019-01-12T06:48:42.852Z,98.67
2019-01-12T06:53:45.313Z,79.70
2019-01-12T06:58:47.764Z,95.40
2019-01-12T07:03:50.231Z,97.87
2019-01-12T07:08:52.709Z,93.80
2019-01-12T07:13:58.017Z,105.93
2019-01-12T07:19:00.415Z,105.57
2019-01-12T07:24:03.453Z,115.80
2019-01-12T07:29:05.939Z,95.07
2019-01-12T07:34:08.385Z,97.80
2019-01-12T07:39:10.866Z,104.23
2019-01-12T07:44:13.315Z,87.03
2019-01-12T07:49:15.784Z,89.57
2019-01-12T07:54:18.251Z,105.40
2019-01-12T07:59:20.708Z,72.53
2019-01-12T08:04:23.176Z,76.43
2019-01-12T08:09:25.639Z,76.80
2019-01-12T08:14:28.098Z,80.93
2019-01-12T08:19:30.563Z,95.80
2019-01-12T08:24:33.008Z,72.80
2019-01-12T08:29:35.454Z,70.07
2019-01-12T08:34:37.939Z,74.03
2019-01-12T08:39:40.397Z,79.67
2019-01-12T08:44:42.852Z,63.80
2019-01-12T08:49:45.314Z,65.60
2019-01-12T08:54:47.791Z,70.40
2019-01-12T08:59:50.246Z,67.07
2019-01-12T09:04:52.705Z,64.13
2019-01-12T09:09:55.174Z,56.87
2019-01-12T09:14:57.647Z,59.23
2019-01-12T09:20:00.155Z,68.37
2019-01-12T09:25:02.610Z,63.70
2019-01-12T09:30:13.858Z,63.67
2019-01-12T09:35:16.332Z,72.33
2019-01-12T09:40:18.942Z,59.00
2019-01-12T09:45:21.406Z,57.53
2019-01-12T09:50:23.863Z,53.97
2019-01-12T09:55:26.333Z,52.40
2019-01-12T10:00:28.799Z,48.67
2019-01-12T10:05:31.262Z,44.57
2019-01-12T10:10:33.723Z,40.77
2019-01-12T10:15:36.261Z,45.77
2019-01-12T10:20:38.757Z,53.40
2019-01-12T10:25:41.232Z,43.63
2019-01-12T10:30:43.698Z,42.23
2019-01-12T10:35:46.224Z,45.67
2019-01-12T10:40:48.686Z,42.73
2019-01-12T10:45:51.179Z,45.77
2019-01-12T10:50:53.608Z,45.10
2019-01-12T10:55:56.071Z,53.03
2019-01-12T11:00:58.550Z,43.20
2019-01-12T11:06:01.037Z,47.33
2019-01-12T11:11:03.513Z,53.67
2019-01-12T11:16:06.014Z,49.07
2019-01-12T11:21:08.476Z,41.77
2019-01-12T11:26:10.958Z,42.67
2019-01-12T11:31:19.624Z,43.60
2019-01-12T11:36:15.898Z,39.13
2019-01-12T11:41:18.357Z,42.00
2019-01-12T11:46:20.819Z,45.57
2019-01-12T11:51:23.284Z,39.27
2019-01-12T11:56:25.755Z,38.87
2019-01-12T12:01:28.262Z,69.23
2019-01-12T12:06:30.794Z,42.13
2019-01-12T12:11:33.258Z,53.03
2019-01-12T12:16:35.725Z,48.03
2019-01-12T12:21:38.185Z,41.03
2019-01-12T12:26:40.665Z,39.17
2019-01-12T12:31:43.143Z,38.73
2019-01-12T12:36:45.607Z,60.00
2019-01-12T12:41:48.095Z,39.23
2019-01-12T12:46:50.570Z,35.87
2019-01-12T12:51:53.028Z,38.00
2019-01-12T12:56:55.504Z,39.80
2019-01-12T13:01:57.959Z,38.23
2019-01-12T13:07:00.439Z,33.67
2019-01-12T13:12:02.918Z,35.17
2019-01-12T13:17:05.374Z,38.23
2019-01-12T13:22:07.879Z,33.97
2019-01-12T13:27:10.331Z,35.00
2019-01-12T13:32:12.793Z,36.47
2019-01-12T13:37:15.301Z,32.70
2019-01-12T13:42:17.777Z,33.63
2019-01-12T13:47:21.010Z,47.13
2019-01-12T13:52:22.760Z,35.47
2019-01-12T13:57:25.213Z,32.60
2019-01-12T14:02:27.676Z,33.53
2019-01-12T14:07:30.130Z,27.73
2019-01-12T14:12:32.604Z,30.80
2019-01-12T14:17:35.056Z,27.87
2019-01-12T14:22:37.540Z,34.70
2019-01-12T14:27:40.037Z,35.10
2019-01-12T14:32:42.502Z,47.97
2019-01-12T14:37:45.463Z,52.77
2019-01-12T14:42:49.759Z,35.53
2019-01-12T14:47:50.392Z,38.23
2019-01-12T14:52:52.890Z,36.03
2019-01-12T14:58:02.046Z,35.10
2019-01-12T15:02:57.909Z,34.10
2019-01-12T15:08:00.376Z,35.30
2019-01-12T15:13:02.868Z,31.47
2019-01-12T15:18:05.344Z,50.77
2019-01-12T15:23:07.835Z,30.37
2019-01-12T15:28:10.305Z,32.70
2019-01-12T15:33:14.242Z,34.10
2019-01-12T15:38:15.233Z,32.70
2019-01-12T15:43:17.697Z,29.90
2019-01-12T15:48:20.168Z,29.13
2019-01-12T15:53:22.638Z,31.07
2019-01-12T15:58:25.135Z,32.20
2019-01-12T16:03:27.606Z,41.80
2019-01-12T16:08:30.078Z,32.97
2019-01-12T16:13:32.542Z,32.67
2019-01-12T16:18:35.015Z,46.47
2019-01-12T16:23:37.478Z,33.87
2019-01-12T16:28:39.945Z,34.93
2019-01-12T16:33:42.655Z,39.70
2019-01-12T16:38:44.864Z,32.07
2019-01-12T16:43:47.332Z,33.67
2019-01-12T16:48:49.794Z,36.47
2019-01-12T16:53:52.275Z,30.83
2019-01-12T16:58:54.764Z,28.97
2019-01-12T17:03:57.228Z,25.77
2019-01-12T17:08:59.749Z,28.03
2019-01-12T17:14:02.212Z,23.03
2019-01-12T17:19:04.697Z,21.03
2019-01-12T17:24:07.155Z,23.27
2019-01-12T17:29:09.606Z,20.93
2019-01-12T17:34:12.068Z,29.67
2019-01-12T17:39:14.564Z,20.10
2019-01-12T17:44:17.051Z,21.33
2019-01-12T17:49:19.535Z,22.20
2019-01-12T17:54:21.998Z,20.80
2019-01-12T17:59:24.480Z,24.83
2019-01-12T18:04:26.970Z,24.33
2019-01-12T18:09:29.430Z,26.33
2019-01-12T18:14:31.900Z,23.60
2019-01-12T18:19:34.436Z,27.37
2019-01-12T18:24:36.877Z,23.13
2019-01-12T18:29:39.364Z,23.10
2019-01-12T18:34:41.840Z,24.33
2019-01-12T18:39:44.336Z,21.93
2019-01-12T18:44:46.751Z,22.00
2019-01-12T18:49:49.216Z,34.07
2019-01-12T18:54:51.683Z,23.80
2019-01-12T18:59:54.130Z,24.40
2019-01-12T19:04:56.628Z,25.10
2019-01-12T19:09:59.102Z,28.40
2019-01-12T19:15:01.575Z,22.77
2019-01-12T19:20:04.015Z,27.00
2019-01-12T19:25:06.477Z,39.67
2019-01-12T19:30:08.949Z,21.70
2019-01-12T19:35:11.402Z,26.50
2019-01-12T19:40:13.856Z,19.57
2019-01-12T19:45:16.330Z,21.20
2019-01-12T19:50:18.815Z,20.13
2019-01-12T19:55:21.298Z,19.40
2019-01-12T20:00:23.773Z,21.37
2019-01-12T20:05:26.222Z,17.83
2019-01-12T20:10:28.688Z,16.47
2019-01-12T20:15:31.162Z,18.77
2019-01-12T20:20:33.662Z,15.73
2019-01-12T20:25:36.129Z,18.97
2019-01-12T20:30:41.293Z,13.93
2019-01-12T20:36:02.056Z,15.70
2019-01-12T20:41:10.140Z,15.27
2019-01-12T20:46:18.774Z,12.53
2019-01-12T20:51:43.026Z,14.17
2019-01-12T20:56:54.306Z,13.13
2019-01-12T21:02:05.563Z,10.73
2019-01-12T21:07:35.711Z,13.40
2019-01-12T21:12:58.968Z,9.63
2019-01-12T21:18:01.443Z,10.77
2019-01-12T21:23:03.949Z,12.53
2019-01-12T21:28:06.486Z,27.83
2019-01-12T21:33:08.943Z,18.63
2019-01-12T21:38:11.422Z,19.47
2019-01-12T21:43:13.881Z,17.63
2019-01-12T21:48:16.358Z,22.53
2019-01-12T21:53:18.820Z,20.70
2019-01-12T21:58:21.301Z,21.93
2019-01-12T22:03:23.788Z,20.93
2019-01-12T22:08:26.248Z,20.80
2019-01-12T22:13:28.715Z,20.60
2019-01-12T22:18:31.209Z,18.83
2019-01-12T22:23:33.684Z,18.23
2019-01-12T22:28:36.162Z,20.87
2019-01-12T22:33:38.656Z,16.00
2019-01-12T22:38:41.140Z,17.23
2019-01-12T22:43:43.646Z,16.60
2019-01-12T22:48:46.126Z,14.60
2019-01-12T22:53:48.589Z,13.27
2019-01-12T22:58:51.055Z,14.47
2019-01-12T23:03:53.613Z,17.47
2019-01-12T23:08:56.079Z,11.37
2019-01-12T23:13:58.551Z,11.90
2019-01-12T23:19:01.029Z,11.50
2019-01-12T23:24:03.513Z,11.43
2019-01-12T23:29:05.977Z,13.13
2019-01-12T23:34:08.561Z,14.83
2019-01-12T23:39:11.027Z,12.37
2019-01-12T23:44:15.061Z,14.00
2019-01-12T23:49:15.974Z,10.83
2019-01-12T23:54:18.428Z,13.77
2019-01-12T23:59:20.900Z,13.60
